Time;durP1;ratioP1;P1;durP2;ratioP2;P2;SDS_P1;SDS_P2;PMS_P1;PMS_P2;Temp;Humidity;BMP_temperature;BMP_pressure;BME280_temperature;BME280_humidity;BME280_pressure;Samples;Min_cycle;Max_cycle;Signal;HPM_P1;HPM_P2
2023/04/03 00:01:08;;;;;;;5.87;2.10;;;3.70;1.00;;;;;;5049555;28;20196;-70
2023/04/03 00:03:36;;;;;;;31.13;8.37;;;3.70;1.00;;;;;;5045544;28;20714;-70
2023/04/03 00:06:06;;;;;;;2.67;1.67;;;3.70;1.00;;;;;;5031034;28;20757;-71
2023/04/03 00:08:33;;;;;;;4.00;2.00;;;3.60;1.00;;;;;;5044824;28;20667;-71
2023/04/03 00:11:01;;;;;;;9.07;3.00;;;3.50;1.00;;;;;;5040520;28;20211;-71
2023/04/03 00:13:28;;;;;;;6.47;1.87;;;3.50;1.00;;;;;;5045249;28;20303;-71
2023/04/03 00:15:55;;;;;;;4.50;2.17;;;3.40;1.00;;;;;;5029617;28;20216;-71
2023/04/03 00:18:22;;;;;;;8.63;3.27;;;3.40;1.00;;;;;;5045285;28;20265;-71
2023/04/03 00:20:49;;;;;;;4.77;2.43;;;3.30;1.00;;;;;;5047188;28;20180;-71
2023/04/03 00:23:17;;;;;;;27.40;8.00;;;3.30;1.00;;;;;;5026777;28;20202;-71
2023/04/03 00:25:44;;;;;;;8.30;2.70;;;3.30;1.00;;;;;;5046681;28;20287;-72
2023/04/03 00:28:11;;;;;;;5.07;2.20;;;3.30;1.00;;;;;;5046421;28;20206;-72
2023/04/03 00:30:39;;;;;;;9.47;2.37;;;3.20;1.00;;;;;;5048635;28;20217;-72
2023/04/03 00:33:06;;;;;;;8.47;3.17;;;3.20;1.00;;;;;;5039268;28;20199;-71
2023/04/03 00:35:34;;;;;;;6.07;2.60;;;3.10;1.00;;;;;;5028984;28;20210;-71
2023/04/03 00:38:02;;;;;;;10.70;3.50;;;3.10;1.00;;;;;;5044610;28;20200;-72
2023/04/03 00:40:34;;;;;;;9.07;3.53;;;3.10;1.00;;;;;;5044084;28;20219;-72
2023/04/03 00:43:05;;;;;;;11.53;4.20;;;3.20;1.00;;;;;;5035386;28;20196;-72
2023/04/03 00:45:39;;;;;;;3.70;1.80;;;3.10;1.00;;;;;;5047974;28;20191;-72
2023/04/03 00:48:09;;;;;;;4.50;2.03;;;3.10;1.00;;;;;;5041786;28;20191;-72
2023/04/03 00:50:41;;;;;;;6.00;1.53;;;3.10;1.00;;;;;;5046692;28;20179;-72
2023/04/03 00:53:17;;;;;;;5.13;1.90;;;3.00;1.00;;;;;;5029637;28;20192;-72
2023/04/03 00:55:47;;;;;;;3.70;1.80;;;3.00;1.00;;;;;;5046381;28;20183;-72
2023/04/03 00:58:17;;;;;;;7.07;2.20;;;2.90;1.00;;;;;;5045410;28;20242;-72
2023/04/03 01:00:51;;;;;;;6.50;2.23;;;2.80;1.00;;;;;;5048757;28;20197;-72
2023/04/03 01:03:18;;;;;;;8.73;2.27;;;2.80;1.00;;;;;;5042889;28;20247;-73
2023/04/03 01:05:45;;;;;;;3.57;1.93;;;2.80;1.00;;;;;;5042599;28;20204;-72
2023/04/03 01:08:12;;;;;;;4.40;1.97;;;2.80;1.00;;;;;;5031819;28;20200;-72
2023/04/03 01:10:39;;;;;;;3.57;1.70;;;2.70;1.00;;;;;;5047086;28;20202;-72
2023/04/03 01:13:29;;;;;;;4.10;1.70;;;2.70;1.00;;;;;;5047313;28;20193;-72
2023/04/03 01:16:00;;;;;;;10.53;2.47;;;2.60;1.00;;;;;;5047805;28;20219;-72
2023/04/03 01:18:27;;;;;;;2.53;1.53;;;2.60;1.00;;;;;;5061887;28;20562;-72
2023/04/03 01:21:13;;;;;;;5.17;2.30;;;2.60;1.00;;;;;;5056799;28;20651;-72
2023/04/03 01:24:12;;;;;;;4.00;1.67;;;2.50;1.00;;;;;;5032397;28;20198;-72
2023/04/03 01:26:39;;;;;;;5.67;1.60;;;2.50;1.00;;;;;;5037456;28;20195;-72
2023/04/03 01:29:06;;;;;;;5.13;1.93;;;2.50;1.00;;;;;;5041916;28;20682;-72
2023/04/03 01:31:49;;;;;;;4.13;1.70;;;2.40;1.00;;;;;;5047602;28;20206;-72
2023/04/03 01:34:16;;;;;;;8.83;2.10;;;2.40;1.00;;;;;;5049020;28;20677;-72
2023/04/03 01:36:44;;;;;;;4.13;2.00;;;2.30;1.00;;;;;;5046605;28;20212;-73
2023/04/03 01:39:11;;;;;;;5.37;1.77;;;2.40;1.00;;;;;;5046146;28;20202;-73
2023/04/03 01:41:39;;;;;;;4.33;1.63;;;2.30;1.00;;;;;;5029043;28;20575;-73
2023/04/03 01:44:13;;;;;;;2.50;1.50;;;2.30;1.00;;;;;;5033160;28;20230;-73
2023/04/03 01:46:42;;;;;;;5.73;2.23;;;2.30;1.00;;;;;;5046612;28;20215;-71
2023/04/03 01:49:10;;;;;;;4.77;2.30;;;2.30;1.00;;;;;;5047700;28;20204;-71
2023/04/03 01:51:37;;;;;;;9.93;2.70;;;2.30;1.00;;;;;;5031856;28;20199;-72
2023/04/03 01:54:04;;;;;;;6.03;1.87;;;2.20;1.00;;;;;;5049540;28;20217;-71
2023/04/03 01:56:31;;;;;;;15.03;4.77;;;2.20;1.00;;;;;;5044022;28;20330;-71
2023/04/03 01:58:58;;;;;;;6.97;2.07;;;2.20;1.00;;;;;;5047786;28;20207;-72
2023/04/03 02:01:25;;;;;;;6.20;2.00;;;2.20;1.00;;;;;;5044904;28;20294;-71
2023/04/03 02:03:53;;;;;;;6.60;2.27;;;2.20;1.00;;;;;;5044924;28;20270;-73
2023/04/03 02:06:20;;;;;;;5.83;2.33;;;2.20;1.00;;;;;;5038653;28;20674;-71
2023/04/03 02:08:47;;;;;;;4.80;2.30;;;2.10;1.00;;;;;;5046705;28;20196;-71
2023/04/03 02:11:14;;;;;;;9.10;2.97;;;2.10;1.00;;;;;;5046571;28;20203;-73
2023/04/03 02:13:41;;;;;;;5.50;2.27;;;2.00;1.00;;;;;;5049040;28;20200;-71
2023/04/03 02:16:10;;;;;;;30.17;6.43;;;2.00;1.00;;;;;;5046440;28;20602;-71
2023/04/03 02:18:38;;;;;;;7.93;3.27;;;2.00;1.00;;;;;;5047953;28;20226;-71
2023/04/03 02:21:05;;;;;;;9.70;2.63;;;2.00;1.00;;;;;;5040381;28;20292;-69
2023/04/03 02:23:35;;;;;;;4.03;2.20;;;2.00;1.00;;;;;;5042547;28;20241;-70
2023/04/03 02:26:11;;;;;;;3.43;2.30;;;2.00;1.00;;;;;;5043138;28;20206;-69
2023/04/03 02:28:39;;;;;;;9.20;2.57;;;1.90;1.00;;;;;;5048295;28;20191;-71
2023/04/03 02:31:07;;;;;;;11.03;2.50;;;1.80;1.00;;;;;;5045999;28;20200;-70
2023/04/03 02:33:36;;;;;;;10.17;2.80;;;1.80;1.00;;;;;;5045804;28;20253;-70
2023/04/03 02:36:07;;;;;;;5.20;2.37;;;1.80;1.00;;;;;;5039598;28;20196;-69
2023/04/03 02:38:35;;;;;;;4.93;2.53;;;1.70;1.00;;;;;;5046799;28;20224;-70
2023/04/03 02:41:04;;;;;;;5.63;2.47;;;1.70;1.00;;;;;;5030853;28;20698;-70
2023/04/03 02:43:32;;;;;;;4.87;2.57;;;1.60;1.00;;;;;;5038351;28;20735;-67
2023/04/03 02:45:59;;;;;;;5.17;2.20;;;1.60;1.00;;;;;;5022215;28;20279;-67
2023/04/03 02:48:27;;;;;;;5.03;1.80;;;1.50;1.00;;;;;;5027989;28;20761;-70
2023/04/03 02:50:54;;;;;;;7.30;2.03;;;1.50;1.00;;;;;;5044704;28;20212;-69
2023/04/03 02:53:22;;;;;;;4.90;1.90;;;1.50;1.00;;;;;;5060518;28;20497;-70
2023/04/03 02:55:50;;;;;;;5.03;2.17;;;1.40;1.00;;;;;;5046085;28;20207;-70
2023/04/03 02:58:17;;;;;;;4.60;2.10;;;1.40;1.00;;;;;;5044117;28;20211;-70
2023/04/03 03:00:44;;;;;;;8.63;2.70;;;1.40;1.00;;;;;;5046038;28;20718;-70
2023/04/03 03:03:13;;;;;;;8.17;2.67;;;1.30;1.00;;;;;;5047052;28;20250;-70
2023/04/03 03:05:40;;;;;;;4.13;2.03;;;1.30;1.00;;;;;;5043433;28;20196;-70
2023/04/03 03:08:07;;;;;;;6.77;2.10;;;1.30;1.00;;;;;;5046166;28;20215;-70
2023/04/03 03:10:34;;;;;;;7.80;2.10;;;1.20;1.00;;;;;;5047907;28;20191;-70
2023/04/03 03:13:01;;;;;;;4.90;2.80;;;1.10;1.00;;;;;;5047456;28;20930;-70
2023/04/03 03:15:29;;;;;;;7.70;2.67;;;1.10;1.00;;;;;;5044234;28;20211;-71
2023/04/03 03:17:56;;;;;;;10.17;4.27;;;1.00;1.00;;;;;;5046229;28;20265;-70
2023/04/03 03:20:23;;;;;;;4.60;2.10;;;1.00;1.00;;;;;;5045984;28;20293;-70
2023/04/03 03:22:50;;;;;;;4.57;2.60;;;1.00;1.00;;;;;;5061886;28;20230;-70
2023/04/03 03:25:17;;;;;;;6.83;3.17;;;1.00;1.00;;;;;;5043820;28;20385;-69
2023/04/03 03:27:45;;;;;;;7.53;2.80;;;1.00;1.00;;;;;;5046169;28;20203;-69
2023/04/03 03:30:12;;;;;;;15.93;6.20;;;0.90;1.00;;;;;;5044316;28;20207;-71
2023/04/03 03:32:40;;;;;;;5.00;2.77;;;1.00;1.00;;;;;;5045718;28;20286;-68
2023/04/03 03:35:07;;;;;;;4.90;2.50;;;1.00;1.00;;;;;;5046957;28;20227;-69
2023/04/03 03:37:34;;;;;;;6.30;2.80;;;0.90;1.00;;;;;;5047196;28;20231;-69
2023/04/03 03:40:02;;;;;;;8.63;2.53;;;0.90;1.00;;;;;;5046561;28;20690;-69
2023/04/03 03:42:30;;;;;;;5.33;2.10;;;0.90;1.00;;;;;;5044325;28;20204;-69
2023/04/03 03:44:57;;;;;;;4.97;2.13;;;0.90;1.00;;;;;;5045751;28;20734;-69
2023/04/03 03:47:25;;;;;;;7.10;2.10;;;0.90;1.00;;;;;;5045034;28;20769;-69
2023/04/03 03:49:52;;;;;;;8.43;2.30;;;0.80;1.00;;;;;;5029508;28;20227;-69
2023/04/03 03:52:19;;;;;;;5.00;1.70;;;0.80;1.00;;;;;;5044857;28;20200;-69
2023/04/03 03:54:46;;;;;;;5.37;1.90;;;0.80;1.00;;;;;;5045120;28;20196;-69
2023/04/03 03:57:15;;;;;;;4.00;2.23;;;0.80;1.00;;;;;;5046187;28;20647;-69
2023/04/03 03:59:44;;;;;;;4.67;1.87;;;0.70;1.00;;;;;;5045655;28;20192;-69
2023/04/03 04:02:11;;;;;;;6.10;2.37;;;0.70;1.00;;;;;;5047286;28;20258;-69
2023/04/03 04:04:39;;;;;;;3.17;1.80;;;0.60;1.00;;;;;;5051506;28;20199;-69
2023/04/03 04:07:06;;;;;;;6.97;2.60;;;0.50;1.00;;;;;;5048096;28;20286;-69
2023/04/03 04:09:34;;;;;;;3.73;2.00;;;0.50;1.00;;;;;;5045719;28;20196;-69
2023/04/03 04:12:01;;;;;;;7.03;2.27;;;0.50;1.00;;;;;;5044795;28;20200;-68
2023/04/03 04:14:31;;;;;;;7.37;3.23;;;0.40;1.00;;;;;;5049038;28;20192;-71
2023/04/03 04:16:59;;;;;;;7.93;2.77;;;0.50;1.00;;;;;;5040662;28;20219;-70
2023/04/03 04:19:27;;;;;;;7.50;2.80;;;0.40;1.00;;;;;;5057199;28;20206;-70
2023/04/03 04:21:54;;;;;;;7.43;2.50;;;0.50;1.00;;;;;;5048279;28;20196;-69
2023/04/03 04:24:22;;;;;;;5.10;2.60;;;0.40;1.00;;;;;;5049289;28;20195;-69
2023/04/03 04:26:52;;;;;;;6.70;2.70;;;0.40;1.00;;;;;;5047653;28;20210;-69
2023/04/03 04:29:21;;;;;;;6.00;3.20;;;0.40;1.00;;;;;;5064861;28;20202;-69
2023/04/03 04:31:50;;;;;;;7.27;3.30;;;0.30;1.00;;;;;;5049068;28;20195;-75
2023/04/03 04:34:17;;;;;;;9.73;3.80;;;0.40;1.00;;;;;;5049289;28;20235;-69
2023/04/03 04:36:44;;;;;;;3.70;2.27;;;0.40;1.00;;;;;;5039466;28;20231;-69
2023/04/03 04:39:11;;;;;;;9.70;2.90;;;0.40;1.00;;;;;;5049057;28;20686;-69
2023/04/03 04:41:39;;;;;;;7.10;2.23;;;0.40;1.00;;;;;;5046703;28;20265;-69
2023/04/03 04:44:08;;;;;;;6.33;2.83;;;0.40;1.00;;;;;;5048134;28;20696;-69
2023/04/03 04:46:36;;;;;;;5.70;2.50;;;0.40;1.00;;;;;;5054450;28;20195;-69
2023/04/03 04:49:04;;;;;;;4.80;2.30;;;0.30;1.00;;;;;;5047026;28;20644;-71
2023/04/03 04:51:32;;;;;;;6.10;2.40;;;0.20;1.00;;;;;;5046966;28;20205;-70
2023/04/03 04:54:11;;;;;;;10.83;2.20;;;0.20;1.00;;;;;;5048141;28;20581;-70
2023/04/03 04:56:38;;;;;;;6.23;2.40;;;0.10;1.00;;;;;;5049323;28;20195;-70
2023/04/03 04:59:05;;;;;;;6.23;2.20;;;0.10;1.00;;;;;;5049636;28;20196;-70
2023/04/03 05:01:32;;;;;;;8.07;2.60;;;0.10;1.00;;;;;;5043599;28;20860;-71
2023/04/03 05:04:06;;;;;;;8.53;2.37;;;0.10;1.00;;;;;;5046028;28;20226;-70
2023/04/03 05:06:34;;;;;;;6.47;2.43;;;0.10;1.00;;;;;;5047109;28;20207;-70
2023/04/03 05:09:05;;;;;;;7.63;2.90;;;0.10;1.00;;;;;;5043880;28;20196;-71
2023/04/03 05:11:33;;;;;;;8.70;2.67;;;0.10;1.00;;;;;;5045224;28;20237;-70
2023/04/03 05:14:00;;;;;;;4.30;2.10;;;0.10;1.00;;;;;;5049292;28;20564;-70
2023/04/03 05:16:28;;;;;;;7.77;2.17;;;0.00;1.00;;;;;;5047809;28;20610;-68
2023/04/03 05:18:56;;;;;;;5.67;2.00;;;0.10;1.00;;;;;;5046877;28;21031;-70
2023/04/03 05:21:25;;;;;;;5.53;2.30;;;0.10;1.00;;;;;;5045761;28;20199;-70
2023/04/03 05:23:54;;;;;;;6.50;2.27;;;0.10;1.00;;;;;;5044808;28;20196;-70
2023/04/03 05:26:22;;;;;;;6.57;2.60;;;0.10;1.00;;;;;;5037613;28;20192;-73
2023/04/03 05:28:50;;;;;;;8.73;2.60;;;0.20;1.00;;;;;;5047217;28;20211;-70
2023/04/03 05:31:18;;;;;;;5.43;2.57;;;0.20;1.00;;;;;;5030973;28;20204;-71
2023/04/03 05:33:46;;;;;;;5.60;2.43;;;0.20;1.00;;;;;;5045518;28;20337;-72
2023/04/03 05:36:16;;;;;;;6.23;2.23;;;0.30;1.00;;;;;;5044069;28;20526;-70
2023/04/03 05:38:48;;;;;;;6.07;2.20;;;0.40;1.00;;;;;;5047111;28;20702;-70
2023/04/03 05:41:15;;;;;;;11.13;3.70;;;0.40;1.00;;;;;;5046849;28;20581;-72
2023/04/03 05:43:45;;;;;;;5.83;2.73;;;0.40;1.00;;;;;;5044640;28;20192;-70
2023/04/03 05:46:17;;;;;;;8.57;2.13;;;0.40;1.00;;;;;;5045079;28;20253;-69
2023/04/03 05:48:48;;;;;;;9.87;2.40;;;0.50;1.00;;;;;;5031906;28;20202;-70
2023/04/03 05:51:22;;;;;;;3.97;2.23;;;0.50;1.00;;;;;;5026959;28;20196;-71
2023/04/03 05:54:00;;;;;;;8.43;2.40;;;0.50;1.00;;;;;;5045425;28;20856;-72
2023/04/03 05:56:29;;;;;;;12.10;4.60;;;0.50;1.00;;;;;;5037052;28;20565;-72
2023/04/03 05:58:56;;;;;;;6.13;2.60;;;0.60;1.00;;;;;;5046442;28;20230;-72
2023/04/03 06:01:24;;;;;;;5.97;2.77;;;0.90;1.00;;;;;;5041923;28;20195;-75
2023/04/03 06:03:51;;;;;;;6.50;2.63;;;3.60;1.00;;;;;;5045266;28;20267;-74
2023/04/03 06:06:18;;;;;;;7.20;2.00;;;5.20;1.00;;;;;;5044203;28;20721;-70
2023/04/03 06:08:46;;;;;;;6.00;2.10;;;5.70;1.00;;;;;;5038901;28;20720;-70
2023/04/03 06:11:14;;;;;;;7.67;2.70;;;6.40;1.00;;;;;;5045706;28;20211;-70
2023/04/03 06:13:41;;;;;;;4.93;2.40;;;7.20;1.00;;;;;;5045272;28;20179;-73
2023/04/03 06:16:17;;;;;;;4.50;2.00;;;7.40;1.00;;;;;;5042870;28;20279;-75
2023/04/03 06:18:44;;;;;;;6.20;1.80;;;7.90;1.00;;;;;;5047465;28;20699;-72
2023/04/03 06:21:11;;;;;;;8.77;2.37;;;7.90;1.00;;;;;;5043448;28;20279;-71
2023/04/03 06:23:38;;;;;;;7.00;2.43;;;8.50;1.00;;;;;;5044663;28;20241;-70
2023/04/03 06:26:05;;;;;;;6.83;2.10;;;8.30;1.00;;;;;;5042305;28;20237;-71
2023/04/03 06:28:32;;;;;;;6.10;1.87;;;8.60;1.00;;;;;;5047393;28;20222;-71
2023/04/03 06:30:59;;;;;;;5.67;2.40;;;7.80;1.00;;;;;;5047722;28;20234;-71
2023/04/03 06:33:26;;;;;;;6.60;2.80;;;9.20;1.00;;;;;;5042881;28;20267;-71
2023/04/03 06:35:58;;;;;;;5.00;2.03;;;10.60;1.00;;;;;;5038116;28;20715;-73
2023/04/03 06:38:25;;;;;;;4.40;2.37;;;9.70;1.00;;;;;;5041887;28;20215;-73
2023/04/03 06:40:52;;;;;;;5.33;2.47;;;10.20;1.00;;;;;;5047121;28;20710;-71
2023/04/03 06:43:20;;;;;;;4.77;1.93;;;9.80;1.00;;;;;;5032839;28;20214;-72
2023/04/03 06:45:50;;;;;;;5.57;1.93;;;10.60;1.00;;;;;;5046110;28;20196;-73
2023/04/03 06:48:17;;;;;;;6.57;2.07;;;11.10;1.00;;;;;;5043076;28;20191;-73
2023/04/03 06:50:44;;;;;;;6.27;2.47;;;11.00;1.00;;;;;;5046393;28;20282;-70
2023/04/03 06:53:12;;;;;;;9.33;2.60;;;11.10;1.00;;;;;;5044014;28;20200;-71
2023/04/03 06:55:39;;;;;;;4.93;2.10;;;10.10;1.00;;;;;;5044568;28;20191;-72
2023/04/03 06:58:07;;;;;;;3.50;1.83;;;10.90;1.00;;;;;;5046499;28;20697;-70
2023/04/03 07:00:34;;;;;;;2.93;1.93;;;11.80;1.00;;;;;;5045510;28;20199;-72
2023/04/03 07:03:01;;;;;;;6.73;2.20;;;11.10;1.00;;;;;;5045733;28;20247;-70
2023/04/03 07:05:28;;;;;;;6.17;2.50;;;11.00;1.00;;;;;;5023872;28;20199;-70
2023/04/03 07:07:55;;;;;;;5.20;2.30;;;12.00;1.00;;;;;;5047931;28;20195;-70
2023/04/03 07:10:22;;;;;;;4.73;1.97;;;12.70;1.00;;;;;;5024937;28;20200;-71
2023/04/03 07:12:49;;;;;;;5.87;2.20;;;12.00;1.00;;;;;;5043388;28;20203;-71
2023/04/03 07:15:16;;;;;;;6.20;2.07;;;11.60;1.00;;;;;;5039038;28;20207;-71
2023/04/03 07:17:43;;;;;;;5.10;2.40;;;12.30;1.00;;;;;;5046689;28;20241;-71
2023/04/03 07:20:11;;;;;;;3.88;2.00;;;13.90;1.00;;;;;;5041100;28;20678;-71
2023/04/03 07:22:38;;;;;;;4.75;2.13;;;14.60;1.00;;;;;;5043688;28;20188;-71
2023/04/03 07:25:07;;;;;;;4.10;2.00;;;14.50;1.00;;;;;;5044109;28;20195;-71
2023/04/03 07:27:34;;;;;;;7.03;2.30;;;13.60;1.00;;;;;;5045454;28;20686;-71
2023/04/03 07:30:01;;;;;;;5.85;2.33;;;13.00;1.00;;;;;;5045453;28;20652;-72
2023/04/03 07:32:28;;;;;;;4.13;2.57;;;12.50;1.00;;;;;;5045627;28;20681;-71
2023/04/03 07:34:55;;;;;;;3.05;1.88;;;13.10;1.00;;;;;;5045393;28;20195;-71
2023/04/03 07:37:22;;;;;;;5.68;2.00;;;13.80;1.00;;;;;;5039374;28;20234;-71
2023/04/03 07:39:50;;;;;;;4.45;2.00;;;14.40;1.00;;;;;;5052056;28;20261;-71
2023/04/03 07:42:17;;;;;;;3.95;1.90;;;14.60;1.00;;;;;;5066636;28;20295;-71
2023/04/03 07:44:45;;;;;;;3.63;1.95;;;14.00;1.00;;;;;;5046831;28;20219;-70
2023/04/03 07:47:14;;;;;;;4.68;2.10;;;13.10;1.00;;;;;;5046371;28;20641;-71
2023/04/03 07:49:41;;;;;;;4.28;1.90;;;14.10;1.00;;;;;;5058950;28;20219;-71
2023/04/03 07:52:08;;;;;;;2.97;1.60;;;14.80;1.00;;;;;;5048339;28;20196;-71
2023/04/03 07:54:36;;;;;;;3.40;2.20;;;14.20;1.00;;;;;;5047917;28;20199;-71
2023/04/03 07:57:03;;;;;;;3.75;1.60;;;15.60;1.00;;;;;;5048852;28;20683;-71
2023/04/03 07:59:30;;;;;;;4.13;2.03;;;15.60;1.00;;;;;;5048222;28;20211;-70
2023/04/03 08:01:57;;;;;;;5.40;2.25;;;14.50;1.00;;;;;;5047712;28;20211;-74
2023/04/03 08:04:25;;;;;;;5.18;2.00;;;15.10;1.00;;;;;;5048651;28;20212;-71
2023/04/03 08:06:53;;;;;;;6.07;2.10;;;15.30;1.00;;;;;;5047125;28;20215;-72
2023/04/03 08:09:20;;;;;;;5.55;2.03;;;16.20;1.00;;;;;;5048833;28;20196;-74
2023/04/03 08:11:47;;;;;;;3.58;1.70;;;16.70;1.00;;;;;;5044112;28;20294;-72
2023/04/03 08:14:18;;;;;;;2.63;1.40;;;16.00;1.00;;;;;;5049100;28;20196;-71
2023/04/03 08:16:47;;;;;;;5.68;2.05;;;15.00;1.00;;;;;;5056189;28;20199;-70
2023/04/03 08:19:16;;;;;;;4.40;1.83;;;15.60;1.00;;;;;;5049903;28;20243;-73
2023/04/03 08:21:53;;;;;;;5.72;1.65;;;15.10;1.00;;;;;;5030374;28;20206;-72
2023/04/03 08:24:20;;;;;;;2.85;1.80;;;15.60;1.00;;;;;;5045288;28;20217;-72
2023/04/03 08:26:47;;;;;;;5.25;1.90;;;16.50;1.00;;;;;;5046644;28;20192;-71
2023/04/03 08:29:14;;;;;;;7.93;2.50;;;15.30;1.00;;;;;;5050379;28;20295;-72
2023/04/03 08:31:41;;;;;;;5.40;2.38;;;16.20;1.00;;;;;;5045253;28;20199;-73
2023/04/03 08:34:08;;;;;;;5.57;2.25;;;15.00;1.00;;;;;;5048000;28;20204;-73
2023/04/03 08:36:35;;;;;;;7.10;2.20;;;15.50;1.00;;;;;;5041435;28;20200;-74
2023/04/03 08:39:02;;;;;;;6.13;2.20;;;16.20;1.00;;;;;;5047262;28;20602;-74
2023/04/03 08:41:38;;;;;;;3.60;2.15;;;18.70;1.00;;;;;;5046930;28;20780;-71
2023/04/03 08:44:16;;;;;;;5.60;2.28;;;16.70;1.00;;;;;;5045215;28;20607;-70
2023/04/03 08:47:07;;;;;;;5.70;2.60;;;18.70;1.00;;;;;;5037586;28;20199;-72
2023/04/03 08:49:46;;;;;;;8.07;2.35;;;18.30;1.00;;;;;;5047944;28;20191;-69
2023/04/03 08:52:20;;;;;;;3.85;2.10;;;17.00;1.00;;;;;;5046442;28;20287;-70
2023/04/03 08:54:50;;;;;;;3.00;1.73;;;17.70;1.00;;;;;;5046638;28;20326;-70
2023/04/03 08:57:26;;;;;;;5.05;1.80;;;17.50;1.00;;;;;;5048423;28;20713;-68
2023/04/03 08:59:54;;;;;;;6.55;2.10;;;18.10;1.00;;;;;;5048819;28;20199;-69
2023/04/03 09:02:27;;;;;;;3.42;1.80;;;17.20;1.00;;;;;;5040324;28;20231;-69
2023/04/03 09:04:54;;;;;;;9.80;5.45;;;17.20;1.00;;;;;;5046509;28;20184;-69
2023/04/03 09:07:38;;;;;;;6.43;3.67;;;16.40;1.00;;;;;;5040674;28;20266;-72
2023/04/03 09:10:06;;;;;;;3.85;1.73;;;19.50;1.00;;;;;;5046177;28;20724;-72
2023/04/03 09:12:53;;;;;;;5.82;2.15;;;16.40;1.00;;;;;;5045945;28;20257;-71
2023/04/03 09:15:25;;;;;;;3.53;2.00;;;16.50;1.00;;;;;;5047502;28;20183;-72
2023/04/03 09:18:16;;;;;;;3.88;1.60;;;18.00;1.00;;;;;;5046815;28;20204;-71
2023/04/03 09:21:02;;;;;;;2.20;1.48;;;16.90;1.00;;;;;;5047745;28;20230;-72
2023/04/03 09:23:32;;;;;;;4.57;1.75;;;16.40;1.00;;;;;;5048268;28;20232;-71
2023/04/03 09:26:19;;;;;;;3.03;1.50;;;15.90;1.00;;;;;;5047305;28;20231;-72
2023/04/03 09:28:46;;;;;;;3.25;1.70;;;17.00;1.00;;;;;;5057623;28;20219;-71
2023/04/03 09:31:30;;;;;;;4.22;1.65;;;17.40;1.00;;;;;;5044591;28;20204;-71
2023/04/03 09:34:03;;;;;;;4.10;1.77;;;16.50;1.00;;;;;;5043777;28;20785;-72
2023/04/03 09:36:39;;;;;;;3.92;1.50;;;15.50;1.00;;;;;;5048996;28;20203;-71
2023/04/03 09:39:12;;;;;;;4.72;2.33;;;17.80;1.00;;;;;;5048505;28;20203;-72
2023/04/03 09:41:39;;;;;;;2.22;1.23;;;17.60;1.00;;;;;;5046459;28;20196;-72
2023/04/03 09:44:21;;;;;;;5.97;1.80;;;18.30;1.00;;;;;;5044572;28;20192;-73
2023/04/03 09:46:49;;;;;;;4.35;1.40;;;18.80;1.00;;;;;;5053245;28;20195;-72
2023/04/03 09:49:18;;;;;;;2.10;1.45;;;18.80;1.00;;;;;;5046444;28;20565;-71
2023/04/03 09:51:45;;;;;;;3.72;1.70;;;18.60;1.00;;;;;;5044692;28;20238;-71
2023/04/03 09:54:31;;;;;;;2.30;1.40;;;18.40;1.00;;;;;;5039426;28;20927;-71
2023/04/03 09:57:06;;;;;;;5.35;1.55;;;19.90;1.00;;;;;;5044810;28;20242;-73
2023/04/03 09:59:33;;;;;;;3.63;1.42;;;19.70;1.00;;;;;;5043607;28;20298;-74
2023/04/03 10:02:18;;;;;;;7.40;2.47;;;17.30;1.00;;;;;;5043739;28;20215;-70
2023/04/03 10:04:45;;;;;;;4.18;1.60;;;18.50;1.00;;;;;;5040006;28;20774;-71
2023/04/03 10:07:33;;;;;;;3.50;2.08;;;17.90;1.00;;;;;;5045881;28;20254;-70
2023/04/03 10:10:15;;;;;;;1.80;1.15;;;17.60;1.00;;;;;;5046054;28;20202;-71
2023/04/03 10:12:42;;;;;;;4.18;1.95;;;16.60;1.00;;;;;;5042595;28;20191;-70
2023/04/03 10:15:18;;;;;;;3.75;2.20;;;17.00;1.00;;;;;;5046965;28;20214;-71
2023/04/03 10:17:58;;;;;;;4.53;2.05;;;18.70;1.00;;;;;;5045986;28;20597;-71
2023/04/03 10:20:38;;;;;;;3.60;1.60;;;20.40;1.00;;;;;;5045226;28;20195;-71
2023/04/03 10:23:16;;;;;;;3.55;1.38;;;20.10;1.00;;;;;;5054004;28;20206;-71
2023/04/03 10:25:49;;;;;;;2.40;1.27;;;19.80;1.00;;;;;;5042970;28;20682;-71
2023/04/03 10:28:32;;;;;;;4.00;1.75;;;18.80;1.00;;;;;;5046570;28;20274;-71
2023/04/03 10:31:09;;;;;;;2.70;1.23;;;18.50;1.00;;;;;;5041964;28;20302;-70
2023/04/03 10:33:54;;;;;;;3.05;1.73;;;16.40;1.00;;;;;;5047107;28;20188;-70
2023/04/03 10:36:57;;;;;;;2.53;1.45;;;15.20;1.00;;;;;;5042105;28;20199;-70
2023/04/03 10:39:49;;;;;;;1.92;1.40;;;16.90;1.00;;;;;;5000262;28;20254;-70
2023/04/03 10:42:28;;;;;;;2.03;1.23;;;16.30;1.00;;;;;;5044928;28;20253;-70
2023/04/03 10:45:17;;;;;;;4.22;1.70;;;15.60;1.00;;;;;;5038602;28;20210;-70
2023/04/03 10:47:56;;;;;;;3.65;2.10;;;14.20;1.00;;;;;;5035335;28;20584;-70
2023/04/03 10:50:42;;;;;;;3.63;1.70;;;15.30;1.00;;;;;;5047257;28;20219;-69
2023/04/03 10:53:32;;;;;;;3.95;1.80;;;15.80;1.00;;;;;;5041727;28;20670;-71
2023/04/03 10:56:05;;;;;;;2.53;1.42;;;15.70;1.00;;;;;;5035149;28;20191;-70
2023/04/03 10:58:37;;;;;;;4.50;1.55;;;16.10;1.00;;;;;;5047231;28;20228;-70
2023/04/03 11:01:11;;;;;;;5.50;1.52;;;14.90;1.00;;;;;;5047189;28;20215;-70
2023/04/03 11:03:45;;;;;;;4.13;2.15;;;12.20;1.00;;;;;;5044899;28;20274;-69
2023/04/03 11:06:17;;;;;;;4.17;1.67;;;10.20;1.00;;;;;;5043049;28;20214;-70
2023/04/03 11:08:56;;;;;;;2.40;1.20;;;12.80;1.00;;;;;;5049876;28;20226;-70
2023/04/03 11:11:32;;;;;;;2.57;1.67;;;12.70;1.00;;;;;;5052830;28;20194;-70
2023/04/03 11:14:19;;;;;;;4.20;1.37;;;12.20;1.00;;;;;;5052101;28;20226;-70
2023/04/03 11:17:03;;;;;;;1.73;1.20;;;13.20;1.00;;;;;;5051550;28;20277;-70
2023/04/03 11:20:00;;;;;;;2.33;1.20;;;13.20;1.00;;;;;;5051253;28;20195;-70
2023/04/03 11:22:40;;;;;;;1.80;1.30;;;14.20;1.00;;;;;;5052764;28;20249;-70
2023/04/03 11:25:16;;;;;;;2.35;1.50;;;14.00;1.00;;;;;;5053092;28;20191;-70
2023/04/03 11:27:52;;;;;;;2.67;1.20;;;13.80;1.00;;;;;;5053090;28;20529;-70
2023/04/03 11:30:42;;;;;;;3.88;1.48;;;11.70;1.00;;;;;;5052175;28;20195;-69
2023/04/03 11:33:24;;;;;;;2.08;1.23;;;11.20;1.00;;;;;;5042440;28;20207;-70
2023/04/03 11:36:16;;;;;;;4.13;1.80;;;11.90;1.00;;;;;;5053902;28;20199;-70
2023/04/03 11:38:59;;;;;;;2.45;1.20;;;12.60;1.00;;;;;;5052146;28;20232;-70
2023/04/03 11:41:31;;;;;;;1.80;1.20;;;13.30;1.00;;;;;;5044384;28;20366;-72
2023/04/03 11:44:25;;;;;;;2.65;1.55;;;14.90;1.00;;;;;;5044288;28;20223;-70
2023/04/03 11:46:53;;;;;;;2.03;1.30;;;13.90;1.00;;;;;;5041769;28;20816;-70
2023/04/03 11:50:00;;;;;;;2.00;1.50;;;13.50;1.00;;;;;;5053492;28;20199;-72
2023/04/03 11:52:40;;;;;;;4.65;1.38;;;11.50;1.00;;;;;;5053422;28;20728;-70
2023/04/03 11:55:22;;;;;;;3.05;1.50;;;11.40;1.00;;;;;;5051468;28;20191;-69
2023/04/03 11:57:58;;;;;;;2.45;1.38;;;12.40;1.00;;;;;;5053154;28;20729;-69
2023/04/03 12:00:43;;;;;;;2.97;1.30;;;11.60;1.00;;;;;;5069006;28;20261;-69
2023/04/03 12:03:22;;;;;;;2.87;1.10;;;11.50;1.00;;;;;;5052881;28;20758;-69
2023/04/03 12:05:54;;;;;;;3.58;1.20;;;11.60;1.00;;;;;;5050388;28;20183;-69
2023/04/03 12:08:24;;;;;;;1.70;1.40;;;11.80;1.00;;;;;;5053766;28;20239;-69
2023/04/03 12:11:10;;;;;;;2.95;1.35;;;11.40;1.00;;;;;;5044894;28;20655;-70
2023/04/03 12:13:49;;;;;;;3.90;1.37;;;11.70;1.00;;;;;;5052567;28;20264;-69
2023/04/03 12:16:30;;;;;;;3.80;1.53;;;11.40;1.00;;;;;;5050346;28;20209;-69
2023/04/03 12:19:34;;;;;;;4.30;1.60;;;10.10;1.00;;;;;;5051047;28;20742;-69
2023/04/03 12:22:07;;;;;;;3.20;1.27;;;10.40;1.00;;;;;;5046039;28;20715;-70
2023/04/03 12:24:39;;;;;;;2.43;1.40;;;12.20;1.00;;;;;;5047593;28;20195;-70
2023/04/03 12:27:25;;;;;;;3.30;1.38;;;12.60;1.00;;;;;;5056463;28;20564;-69
2023/04/03 12:30:05;;;;;;;3.70;1.33;;;11.70;1.00;;;;;;5047719;28;20359;-70
2023/04/03 12:32:57;;;;;;;2.80;1.30;;;11.40;1.00;;;;;;5056876;28;20203;-71
2023/04/03 12:36:11;;;;;;;2.97;1.50;;;10.70;1.00;;;;;;5047097;28;20735;-70
2023/04/03 12:39:01;;;;;;;2.57;1.43;;;10.40;1.00;;;;;;5039881;28;20559;-71
2023/04/03 12:41:53;;;;;;;2.57;1.50;;;10.70;1.00;;;;;;5049323;28;20179;-71
2023/04/03 12:44:42;;;;;;;3.40;1.40;;;10.40;1.00;;;;;;5040592;28;20659;-69
2023/04/03 12:47:27;;;;;;;2.17;1.40;;;9.60;1.00;;;;;;5049490;28;20192;-69
2023/04/03 12:49:58;;;;;;;3.17;1.37;;;8.90;1.00;;;;;;5040776;28;20199;-69
2023/04/03 12:52:43;;;;;;;2.50;1.40;;;9.30;1.00;;;;;;5050416;28;20230;-70
2023/04/03 12:55:19;;;;;;;2.03;1.40;;;9.50;1.00;;;;;;5047789;28;20235;-70
2023/04/03 12:57:47;;;;;;;2.43;1.37;;;9.60;1.00;;;;;;5032148;28;20194;-70
2023/04/03 13:00:34;;;;;;;1.73;1.40;;;9.40;1.00;;;;;;5048175;28;20636;-70
2023/04/03 13:03:03;;;;;;;3.63;1.50;;;9.10;1.00;;;;;;5049252;28;20270;-71
2023/04/03 13:05:32;;;;;;;1.97;1.53;;;9.60;1.00;;;;;;5046911;28;20670;-69
2023/04/03 13:08:08;;;;;;;5.20;1.90;;;9.80;1.00;;;;;;5047629;28;20203;-70
2023/04/03 13:10:56;;;;;;;2.93;1.50;;;9.40;1.00;;;;;;5047923;28;20230;-69
2023/04/03 13:13:24;;;;;;;1.90;1.43;;;9.80;1.00;;;;;;5048497;28;20226;-69
2023/04/03 13:15:52;;;;;;;5.13;1.70;;;9.00;1.00;;;;;;5047827;28;20221;-69
2023/04/03 13:18:28;;;;;;;2.80;1.80;;;9.30;1.00;;;;;;5047049;28;20238;-68
2023/04/03 13:21:16;;;;;;;3.93;2.00;;;9.20;1.00;;;;;;5045720;28;20726;-70
2023/04/03 13:23:48;;;;;;;4.33;1.80;;;9.30;1.00;;;;;;5046977;28;20190;-70
2023/04/03 13:26:21;;;;;;;5.40;2.03;;;9.00;1.00;;;;;;5033655;28;20234;-70
2023/04/03 13:28:50;;;;;;;4.00;1.70;;;9.10;1.00;;;;;;5039508;28;20200;-70